createdAt,value
2018-10-07T00:01:31.682Z,60.29
2018-10-07T00:04:01.244Z,59.84
2018-10-07T00:06:30.500Z,58.61
2018-10-07T00:08:59.850Z,59.16
2018-10-07T00:11:28.931Z,59.82
2018-10-07T00:13:58.010Z,60.02
2018-10-07T00:16:27.226Z,60.03
2018-10-07T00:18:56.261Z,59.42
2018-10-07T00:21:25.294Z,59.80
2018-10-07T00:23:54.361Z,59.61
2018-10-07T00:26:23.368Z,59.62
2018-10-07T00:28:52.604Z,59.34
2018-10-07T00:31:21.994Z,59.89
2018-10-07T00:33:51.520Z,59.63
2018-10-07T00:36:20.917Z,60.10
2018-10-07T00:38:50.215Z,59.68
2018-10-07T00:41:19.457Z,61.93
2018-10-07T00:43:48.509Z,59.49
2018-10-07T00:46:17.730Z,59.84
2018-10-07T00:48:46.938Z,60.53
2018-10-07T00:51:15.981Z,60.33
2018-10-07T00:53:45.127Z,59.95
2018-10-07T00:56:14.435Z,60.27
2018-10-07T00:58:44.315Z,61.41
2018-10-07T01:01:13.750Z,60.71
2018-10-07T01:03:42.866Z,60.34
2018-10-07T01:06:12.250Z,61.12
2018-10-07T01:08:41.632Z,60.57
2018-10-07T01:11:10.854Z,60.72
2018-10-07T01:13:39.961Z,60.94
2018-10-07T01:16:09.110Z,61.37
2018-10-07T01:18:38.130Z,60.86
2018-10-07T01:21:07.150Z,60.82
2018-10-07T01:23:36.442Z,60.99
2018-10-07T01:26:05.939Z,61.45
2018-10-07T01:28:35.051Z,62.06
2018-10-07T01:31:04.031Z,61.91
2018-10-07T01:33:33.059Z,62.12
2018-10-07T01:36:02.416Z,61.87
2018-10-07T01:38:31.455Z,62.18
2018-10-07T01:41:00.544Z,61.56
2018-10-07T01:43:30.024Z,61.62
2018-10-07T01:45:59.885Z,61.91
2018-10-07T01:48:28.987Z,61.60
2018-10-07T01:50:58.075Z,62.11
2018-10-07T01:53:29.355Z,61.92
2018-10-07T01:55:58.365Z,62.07
2018-10-07T01:58:27.370Z,62.47
2018-10-07T02:00:56.714Z,63.17
2018-10-07T02:03:25.727Z,62.78
2018-10-07T02:05:55.020Z,63.01
2018-10-07T02:08:24.415Z,62.41
2018-10-07T02:10:53.405Z,62.89
2018-10-07T02:13:22.627Z,62.53
2018-10-07T02:15:51.631Z,63.31
2018-10-07T02:18:21.086Z,63.19
2018-10-07T02:20:50.083Z,62.85
2018-10-07T02:23:19.116Z,63.00
2018-10-07T02:25:48.426Z,63.34
2018-10-07T02:28:17.523Z,63.35
2018-10-07T02:30:46.798Z,64.46
2018-10-07T02:33:15.806Z,64.34
2018-10-07T02:35:45.014Z,64.58
2018-10-07T02:38:14.019Z,63.54
2018-10-07T02:40:43.322Z,64.12
2018-10-07T02:43:12.441Z,64.49
2018-10-07T02:45:41.626Z,64.84
2018-10-07T02:48:10.694Z,64.29
2018-10-07T02:50:40.667Z,64.67
2018-10-07T02:53:09.955Z,64.78
2018-10-07T02:55:39.019Z,64.82
2018-10-07T02:58:08.479Z,65.24
2018-10-07T03:00:37.528Z,63.77
2018-10-07T03:03:06.608Z,63.77
2018-10-07T03:05:35.655Z,64.29
2018-10-07T03:08:04.661Z,63.32
2018-10-07T03:10:33.670Z,64.44
2018-10-07T03:13:02.692Z,64.03
2018-10-07T03:15:32.197Z,64.18
2018-10-07T03:18:01.406Z,64.17
2018-10-07T03:20:30.407Z,64.75
2018-10-07T03:22:59.405Z,64.08
2018-10-07T03:25:28.678Z,65.23
2018-10-07T03:27:57.666Z,64.31
2018-10-07T03:30:26.707Z,65.76
2018-10-07T03:32:55.720Z,64.58
2018-10-07T03:35:24.740Z,65.00
2018-10-07T03:37:54.106Z,64.08
2018-10-07T03:40:23.116Z,65.19
2018-10-07T03:42:52.128Z,64.97
2018-10-07T03:45:21.660Z,64.83
2018-10-07T03:47:50.671Z,64.44
2018-10-07T03:50:19.934Z,65.40
2018-10-07T03:52:49.220Z,64.73
2018-10-07T03:55:18.466Z,63.59
2018-10-07T03:57:47.658Z,64.37
2018-10-07T04:00:16.687Z,63.48
2018-10-07T04:02:46.107Z,64.08
2018-10-07T04:05:15.343Z,64.08
2018-10-07T04:07:44.348Z,63.13
2018-10-07T04:10:13.358Z,63.43
2018-10-07T04:12:42.398Z,64.43
2018-10-07T04:15:11.589Z,64.02
2018-10-07T04:17:40.615Z,64.64
2018-10-07T04:20:09.713Z,64.10
2018-10-07T04:22:38.843Z,64.11
2018-10-07T04:25:07.896Z,64.30
2018-10-07T04:27:36.914Z,64.73
2018-10-07T04:30:06.156Z,64.31
2018-10-07T04:32:35.203Z,64.38
2018-10-07T04:35:04.230Z,64.18
2018-10-07T04:37:33.505Z,64.88
2018-10-07T04:40:02.577Z,63.84
2018-10-07T04:42:31.764Z,63.95
2018-10-07T04:45:00.781Z,64.69
2018-10-07T04:47:29.781Z,64.30
2018-10-07T04:49:58.831Z,64.34
2018-10-07T04:52:27.850Z,64.02
2018-10-07T04:54:56.903Z,65.30
2018-10-07T04:57:25.898Z,64.79
2018-10-07T04:59:54.894Z,65.59
2018-10-07T05:02:24.198Z,64.40
2018-10-07T05:04:53.220Z,65.53
2018-10-07T05:07:22.319Z,66.05
2018-10-07T05:11:05.875Z,65.30
2018-10-07T05:13:44.278Z,66.59
2018-10-07T05:16:18.747Z,66.06
2018-10-07T05:18:47.943Z,66.15
2018-10-07T05:21:17.020Z,66.96
2018-10-07T05:23:46.013Z,66.46
2018-10-07T05:26:15.077Z,66.60
2018-10-07T05:28:44.085Z,66.77
2018-10-07T05:31:13.370Z,66.57
2018-10-07T05:33:42.407Z,65.55
2018-10-07T05:36:11.455Z,66.25
2018-10-07T05:38:40.747Z,66.31
2018-10-07T05:41:10.445Z,67.30
2018-10-07T05:43:39.463Z,66.63
2018-10-07T05:46:08.514Z,66.41
2018-10-07T05:48:37.513Z,66.31
2018-10-07T05:51:06.787Z,66.95
2018-10-07T05:53:36.054Z,67.76
2018-10-07T05:56:05.181Z,68.02
2018-10-07T05:58:34.643Z,68.09
2018-10-07T06:01:09.696Z,68.71
2018-10-07T06:03:45.104Z,68.98
2018-10-07T06:06:14.140Z,68.50
2018-10-07T06:08:43.480Z,69.37
2018-10-07T06:11:12.494Z,68.90
2018-10-07T06:13:41.554Z,69.81
2018-10-07T06:16:10.572Z,69.50
2018-10-07T06:18:39.566Z,70.00
2018-10-07T06:21:08.608Z,71.37
2018-10-07T06:23:37.650Z,71.35
2018-10-07T06:26:06.669Z,72.08
2018-10-07T06:28:36.039Z,71.84
2018-10-07T06:31:05.046Z,71.37
2018-10-07T06:33:34.062Z,71.38
2018-10-07T06:36:03.059Z,71.19
2018-10-07T06:38:32.103Z,72.72
2018-10-07T06:41:01.165Z,73.63
2018-10-07T06:43:30.160Z,72.99
2018-10-07T06:45:59.199Z,71.87
2018-10-07T06:48:28.168Z,71.46
2018-10-07T06:50:57.395Z,72.55
2018-10-07T06:53:26.485Z,70.95
2018-10-07T06:58:24.130Z,72.81
2018-10-07T07:00:53.398Z,72.24
2018-10-07T07:03:22.563Z,72.44
2018-10-07T07:05:51.855Z,72.38
2018-10-07T07:08:21.143Z,71.09
2018-10-07T07:10:50.167Z,71.24
2018-10-07T07:13:19.299Z,73.51
2018-10-07T07:15:48.499Z,74.87
2018-10-07T07:18:17.784Z,74.76
2018-10-07T07:20:47.269Z,72.74
2018-10-07T07:23:16.633Z,72.48
2018-10-07T07:25:46.013Z,74.04
2018-10-07T07:28:18.726Z,75.03
2018-10-07T07:30:49.039Z,73.92
2018-10-07T07:33:18.118Z,74.49
2018-10-07T07:35:47.490Z,75.25
2018-10-07T07:38:16.612Z,76.45
2018-10-07T07:40:45.922Z,76.54
2018-10-07T07:43:15.179Z,75.75
2018-10-07T07:45:44.584Z,76.99
2018-10-07T07:48:13.600Z,76.00
2018-10-07T07:50:42.683Z,76.04
2018-10-07T07:53:12.375Z,76.54
2018-10-07T07:55:42.326Z,76.63
2018-10-07T07:58:11.887Z,76.24
2018-10-07T08:00:43.686Z,74.62
2018-10-07T08:03:12.694Z,74.85
2018-10-07T08:05:41.734Z,73.89
2018-10-07T08:08:10.774Z,73.00
2018-10-07T08:10:40.135Z,72.60
2018-10-07T08:13:09.203Z,71.58
2018-10-07T08:15:38.397Z,72.15
2018-10-07T08:18:07.437Z,71.41
2018-10-07T08:20:36.636Z,71.81
2018-10-07T08:23:07.269Z,71.41
2018-10-07T08:25:36.283Z,71.90
2018-10-07T08:28:05.323Z,71.13
2018-10-07T08:30:34.310Z,71.40
2018-10-07T08:33:03.365Z,71.14
2018-10-07T08:35:32.398Z,70.82
2018-10-07T08:38:01.565Z,70.61
2018-10-07T08:40:30.603Z,71.22
2018-10-07T08:42:59.620Z,71.82
2018-10-07T08:45:28.701Z,70.48
2018-10-07T08:47:57.686Z,68.94
2018-10-07T08:50:26.697Z,68.47
2018-10-07T08:52:56.230Z,68.53
2018-10-07T08:55:25.262Z,67.67
2018-10-07T08:57:54.263Z,67.78
2018-10-07T09:00:23.272Z,66.62
2018-10-07T09:02:52.294Z,65.35
2018-10-07T09:05:21.565Z,66.39
2018-10-07T09:07:50.629Z,67.89
2018-10-07T09:10:19.845Z,67.04
2018-10-07T09:12:48.911Z,66.35
2018-10-07T09:15:18.003Z,66.84
2018-10-07T09:17:47.023Z,66.92
2018-10-07T09:20:16.046Z,67.37
2018-10-07T09:22:45.059Z,68.37
2018-10-07T09:25:14.482Z,68.42
2018-10-07T09:27:43.533Z,68.18
2018-10-07T09:30:12.623Z,67.57
2018-10-07T09:32:41.706Z,67.34
2018-10-07T09:35:10.747Z,67.24
2018-10-07T09:37:39.848Z,66.67
2018-10-07T09:40:09.084Z,67.26
2018-10-07T09:42:38.235Z,67.33
2018-10-07T09:45:07.893Z,66.61
2018-10-07T09:47:37.078Z,66.77
2018-10-07T09:50:06.644Z,66.10
2018-10-07T09:52:35.932Z,66.43
2018-10-07T09:55:04.995Z,66.59
2018-10-07T09:57:33.975Z,64.64
2018-10-07T10:00:03.619Z,64.42
2018-10-07T10:02:33.026Z,64.17
2018-10-07T10:05:02.335Z,65.17
2018-10-07T10:07:31.382Z,64.92
2018-10-07T10:10:00.522Z,66.04
2018-10-07T10:12:30.381Z,64.89
2018-10-07T10:14:59.501Z,64.11
2018-10-07T10:17:29.056Z,64.54
2018-10-07T10:20:08.985Z,64.88
2018-10-07T10:23:23.020Z,64.36
2018-10-07T10:28:09.110Z,63.30
2018-10-07T10:31:59.019Z,65.98
2018-10-07T10:34:44.247Z,65.23
2018-10-07T10:37:19.870Z,65.28
2018-10-07T10:39:55.762Z,65.81
2018-10-07T10:42:51.201Z,64.37
2018-10-07T10:45:35.421Z,63.71
2018-10-07T10:48:20.971Z,65.57
2018-10-07T10:50:58.496Z,65.45
2018-10-07T10:53:41.435Z,63.86
2018-10-07T10:56:19.427Z,62.27
2018-10-07T10:59:06.780Z,62.93
2018-10-07T11:02:07.545Z,61.54
2018-10-07T11:04:47.931Z,61.35
2018-10-07T11:07:24.969Z,60.51
2018-10-07T11:10:10.046Z,61.18
2018-10-07T11:12:48.722Z,61.63
2018-10-07T11:15:38.881Z,61.20
2018-10-07T11:18:17.271Z,61.10
2018-10-07T11:21:03.964Z,60.78
2018-10-07T11:23:46.234Z,60.65
2018-10-07T11:26:29.238Z,59.71
2018-10-07T11:29:26.237Z,61.96
2018-10-07T11:32:11.795Z,62.38
2018-10-07T11:34:56.307Z,61.97
2018-10-07T11:37:42.618Z,60.71
2018-10-07T11:40:30.134Z,60.54
2018-10-07T11:43:22.731Z,60.55
2018-10-07T11:46:03.545Z,61.91
2018-10-07T11:49:20.190Z,60.67
2018-10-07T11:51:59.781Z,61.52
2018-10-07T11:55:02.869Z,61.24
2018-10-07T11:57:32.406Z,61.17
2018-10-07T12:02:39.583Z,58.29
2018-10-07T12:05:08.735Z,57.93
2018-10-07T12:07:38.759Z,58.40
2018-10-07T12:10:08.337Z,59.12
2018-10-07T12:12:37.421Z,58.69
2018-10-07T12:15:06.444Z,58.34
2018-10-07T12:17:35.442Z,58.29
2018-10-07T12:20:05.807Z,57.77
2018-10-07T12:22:34.925Z,57.90
2018-10-07T12:25:04.199Z,56.68
2018-10-07T12:27:34.031Z,57.25
2018-10-07T12:30:03.378Z,59.14
2018-10-07T12:32:32.427Z,58.32
2018-10-07T12:35:01.966Z,58.66
2018-10-07T12:37:31.712Z,58.36
2018-10-07T12:40:00.816Z,57.54
2018-10-07T12:42:30.196Z,58.00
2018-10-07T12:44:59.238Z,58.72
2018-10-07T12:47:28.268Z,57.53
2018-10-07T12:49:57.705Z,57.27
2018-10-07T12:52:27.152Z,56.97
2018-10-07T12:54:56.478Z,55.74
2018-10-07T12:57:25.666Z,55.53
2018-10-07T12:59:54.815Z,53.16
2018-10-07T13:02:24.071Z,53.10
2018-10-07T13:04:53.641Z,52.33
2018-10-07T13:07:23.391Z,52.62
2018-10-07T13:09:52.941Z,51.51
2018-10-07T13:12:22.640Z,52.44
2018-10-07T13:14:52.407Z,52.64
2018-10-07T13:17:22.497Z,52.50
2018-10-07T13:19:53.033Z,52.95
2018-10-07T13:22:22.565Z,52.76
2018-10-07T13:24:52.079Z,52.23
2018-10-07T13:27:21.344Z,51.34
2018-10-07T13:29:50.715Z,51.11
2018-10-07T13:32:19.994Z,51.43
2018-10-07T13:34:49.023Z,51.45
2018-10-07T13:37:18.341Z,51.55
2018-10-07T13:39:47.417Z,51.83
2018-10-07T13:42:16.529Z,52.24
2018-10-07T13:44:45.972Z,52.72
2018-10-07T13:47:15.114Z,52.82
2018-10-07T13:49:44.754Z,52.99
2018-10-07T13:52:14.394Z,52.83
2018-10-07T13:54:44.369Z,53.09
2018-10-07T13:57:14.051Z,52.00
2018-10-07T13:59:43.678Z,50.61
2018-10-07T14:02:12.727Z,50.73
2018-10-07T14:04:42.120Z,49.46
2018-10-07T14:07:11.395Z,50.34
2018-10-07T14:09:40.501Z,51.52
2018-10-07T14:12:09.556Z,51.87
2018-10-07T14:14:38.691Z,51.49
2018-10-07T14:17:07.757Z,50.26
2018-10-07T14:19:36.772Z,52.02
2018-10-07T14:22:05.860Z,52.21
2018-10-07T14:24:35.268Z,51.69
2018-10-07T14:27:04.972Z,52.12
2018-10-07T14:29:34.472Z,52.37
2018-10-07T14:32:05.126Z,51.87
2018-10-07T14:34:34.849Z,53.02
2018-10-07T14:37:04.509Z,52.13
2018-10-07T14:39:33.967Z,53.52
2018-10-07T14:42:03.059Z,52.81
2018-10-07T14:44:32.061Z,52.72
2018-10-07T14:47:01.660Z,53.02
2018-10-07T14:49:30.911Z,52.81
2018-10-07T14:52:00.009Z,52.91
2018-10-07T14:54:29.089Z,53.05
2018-10-07T14:56:58.386Z,52.42
2018-10-07T14:59:27.450Z,52.92
2018-10-07T15:01:56.487Z,52.79
2018-10-07T15:04:25.775Z,52.83
2018-10-07T15:06:54.846Z,52.51
2018-10-07T15:09:24.289Z,53.11
2018-10-07T15:11:53.250Z,53.08
2018-10-07T15:14:22.668Z,52.02
2018-10-07T15:16:51.722Z,51.96
2018-10-07T15:19:20.727Z,52.19
2018-10-07T15:21:49.895Z,52.75
2018-10-07T15:24:19.215Z,52.15
2018-10-07T15:26:48.282Z,52.91
2018-10-07T15:29:18.051Z,52.84
2018-10-07T15:31:47.618Z,51.80
2018-10-07T15:34:16.714Z,51.96
2018-10-07T15:36:47.226Z,51.89
2018-10-07T15:39:16.802Z,53.30
2018-10-07T15:41:47.191Z,52.13
2018-10-07T15:44:17.795Z,52.39
2018-10-07T15:46:47.710Z,52.71
2018-10-07T15:49:17.557Z,53.07
2018-10-07T15:51:46.548Z,53.07
2018-10-07T15:54:15.695Z,53.35
2018-10-07T15:56:46.969Z,54.07
2018-10-07T15:59:16.493Z,53.56
2018-10-07T16:01:46.526Z,53.00
2018-10-07T16:04:16.692Z,54.52
2018-10-07T16:06:46.280Z,53.13
2018-10-07T16:09:17.492Z,53.33
2018-10-07T16:11:48.051Z,52.76
2018-10-07T16:14:17.860Z,52.39
2018-10-07T16:16:48.175Z,52.87
2018-10-07T16:19:17.339Z,52.23
2018-10-07T16:21:46.770Z,52.77
2018-10-07T16:24:15.832Z,52.17
2018-10-07T16:26:44.869Z,52.39
2018-10-07T16:29:14.051Z,52.91
2018-10-07T16:31:43.043Z,51.64
2018-10-07T16:34:12.230Z,52.43
2018-10-07T16:36:41.489Z,53.28
2018-10-07T16:39:10.599Z,53.35
2018-10-07T16:41:39.743Z,52.34
2018-10-07T16:44:08.899Z,53.00
2018-10-07T16:46:37.895Z,53.10
2018-10-07T16:49:07.365Z,52.93
2018-10-07T16:51:36.435Z,52.45
2018-10-07T16:54:06.696Z,52.68
2018-10-07T16:56:36.922Z,52.92
2018-10-07T16:59:07.115Z,52.94
2018-10-07T17:01:37.323Z,53.49
2018-10-07T17:04:07.160Z,53.49
2018-10-07T17:06:36.903Z,54.35
2018-10-07T17:09:09.540Z,54.56
2018-10-07T17:11:39.943Z,54.28
2018-10-07T17:14:10.293Z,55.77
2018-10-07T17:16:39.427Z,54.73
2018-10-07T17:19:08.474Z,55.03
2018-10-07T17:21:37.523Z,55.15
2018-10-07T17:24:07.819Z,55.13
2018-10-07T17:26:37.988Z,55.09
2018-10-07T17:29:08.568Z,55.28
2018-10-07T17:31:37.601Z,54.63
2018-10-07T17:34:06.651Z,54.33
2018-10-07T17:36:35.720Z,54.90
2018-10-07T17:39:07.407Z,54.98
2018-10-07T17:41:36.430Z,55.10
2018-10-07T17:44:05.627Z,54.47
2018-10-07T17:46:34.630Z,54.81
2018-10-07T17:49:04.050Z,54.59
2018-10-07T17:51:32.932Z,55.22
2018-10-07T17:54:01.939Z,55.09
2018-10-07T17:56:30.951Z,55.25
2018-10-07T17:58:59.953Z,54.38
2018-10-07T18:01:28.978Z,54.14
2018-10-07T18:03:57.995Z,54.71
2018-10-07T18:06:27.010Z,53.34
2018-10-07T18:08:56.063Z,53.44
2018-10-07T18:11:25.267Z,54.48
2018-10-07T18:13:54.369Z,53.55
2018-10-07T18:16:23.446Z,53.63
2018-10-07T18:18:53.802Z,53.79
2018-10-07T18:21:23.194Z,53.77
2018-10-07T18:23:53.903Z,54.87
2018-10-07T18:26:25.032Z,54.64
2018-10-07T18:28:54.113Z,54.79
2018-10-07T18:31:23.187Z,54.10
2018-10-07T18:33:52.648Z,53.70
2018-10-07T18:36:22.753Z,53.78
2018-10-07T18:38:53.590Z,53.94
2018-10-07T18:41:24.704Z,53.18
2018-10-07T18:43:54.832Z,53.14
2018-10-07T18:46:24.841Z,54.12
2018-10-07T18:48:55.205Z,54.11
2018-10-07T18:51:25.395Z,54.96
2018-10-07T18:53:55.035Z,54.50
2018-10-07T18:56:24.794Z,54.05
2018-10-07T18:58:55.001Z,53.84
2018-10-07T19:01:25.008Z,54.25
2018-10-07T19:03:55.300Z,54.36
2018-10-07T19:06:25.183Z,54.08
2018-10-07T19:08:55.078Z,55.47
2018-10-07T19:11:24.775Z,55.96
2018-10-07T19:14:00.413Z,55.69
2018-10-07T19:16:30.295Z,55.27
2018-10-07T19:19:00.522Z,55.98
2018-10-07T19:21:29.695Z,55.56
2018-10-07T19:23:58.983Z,55.73
2018-10-07T19:26:29.344Z,55.90
2018-10-07T19:29:00.059Z,54.94
2018-10-07T19:31:29.187Z,55.05
2018-10-07T19:33:59.085Z,54.94
2018-10-07T19:36:28.627Z,54.56
2018-10-07T19:38:58.626Z,54.87
2018-10-07T19:41:29.642Z,55.21
2018-10-07T19:43:58.902Z,55.71
2018-10-07T19:46:28.809Z,54.77
2018-10-07T19:48:59.293Z,56.07
2018-10-07T19:51:29.039Z,56.15
2018-10-07T19:53:59.291Z,56.00
2018-10-07T19:56:29.635Z,55.65
2018-10-07T19:58:59.616Z,55.32
2018-10-07T20:01:28.680Z,56.02
2018-10-07T20:03:58.955Z,55.83
2018-10-07T20:06:28.026Z,55.73
2018-10-07T20:08:57.216Z,56.11
2018-10-07T20:11:26.296Z,55.46
2018-10-07T20:13:55.323Z,56.87
2018-10-07T20:16:24.395Z,57.35
2018-10-07T20:18:53.455Z,57.56
2018-10-07T20:21:22.477Z,57.46
2018-10-07T20:23:51.555Z,59.60
2018-10-07T20:26:20.756Z,57.71
2018-10-07T20:28:49.912Z,57.26
2018-10-07T20:31:19.081Z,57.73
2018-10-07T20:33:48.160Z,57.38
2018-10-07T20:36:17.176Z,57.46
2018-10-07T20:38:46.263Z,57.42
2018-10-07T20:41:15.450Z,57.48
2018-10-07T20:43:44.643Z,57.42
2018-10-07T20:46:13.726Z,58.38
2018-10-07T20:48:42.745Z,57.90
2018-10-07T20:51:12.120Z,58.60
2018-10-07T20:53:41.219Z,58.36
2018-10-07T20:56:10.612Z,57.67
2018-10-07T20:58:39.850Z,58.65
2018-10-07T21:01:09.053Z,58.10
2018-10-07T21:03:38.115Z,58.24
2018-10-07T21:06:07.390Z,57.26
2018-10-07T21:08:36.411Z,57.79
2018-10-07T21:11:06.773Z,58.19
2018-10-07T21:13:35.795Z,57.63
2018-10-07T21:16:04.872Z,57.89
2018-10-07T21:18:34.046Z,58.47
2018-10-07T21:21:03.202Z,60.74
2018-10-07T21:23:32.359Z,64.59
2018-10-07T21:26:02.198Z,62.25
2018-10-07T21:28:31.410Z,59.68
2018-10-07T21:31:00.488Z,58.95
2018-10-07T21:33:29.737Z,58.93
2018-10-07T21:35:59.131Z,58.82
2018-10-07T21:38:28.171Z,61.47
2018-10-07T21:40:57.223Z,60.18
2018-10-07T21:43:27.095Z,59.10
2018-10-07T21:45:56.440Z,62.18
2018-10-07T21:48:25.845Z,60.98
2018-10-07T21:50:55.246Z,60.73
2018-10-07T21:53:24.615Z,63.90
2018-10-07T21:55:55.643Z,66.92
2018-10-07T21:58:25.079Z,64.53
2018-10-07T22:00:55.318Z,65.05
2018-10-07T22:03:25.244Z,62.09
2018-10-07T22:05:54.287Z,60.51
2018-10-07T22:08:23.315Z,61.37
2018-10-07T22:10:52.325Z,63.33
2018-10-07T22:13:21.358Z,60.93
2018-10-07T22:15:50.376Z,60.47
2018-10-07T22:18:19.541Z,60.28
2018-10-07T22:20:48.562Z,60.03
2018-10-07T22:23:17.618Z,61.19
2018-10-07T22:25:46.668Z,61.45
2018-10-07T22:28:16.107Z,61.17
2018-10-07T22:30:45.693Z,63.14
2018-10-07T22:33:14.683Z,61.58
2018-10-07T22:35:43.741Z,61.49
2018-10-07T22:38:12.796Z,61.49
2018-10-07T22:40:41.814Z,63.08
2018-10-07T22:43:10.838Z,63.57
2018-10-07T22:45:39.920Z,62.09
2018-10-07T22:48:08.961Z,62.24
2018-10-07T22:50:38.695Z,61.98
2018-10-07T22:53:07.972Z,61.55
2018-10-07T22:55:37.051Z,62.35
2018-10-07T22:58:06.659Z,64.12
2018-10-07T23:00:35.838Z,65.40
2018-10-07T23:03:04.799Z,63.14
2018-10-07T23:05:34.347Z,63.20
2018-10-07T23:08:03.669Z,63.26
2018-10-07T23:10:32.717Z,62.69
2018-10-07T23:13:01.748Z,61.84
2018-10-07T23:15:30.774Z,61.63
2018-10-07T23:17:59.778Z,63.04
2018-10-07T23:20:29.220Z,63.10
2018-10-07T23:22:58.927Z,62.95
2018-10-07T23:25:27.950Z,64.13
2018-10-07T23:27:56.971Z,64.34
2018-10-07T23:30:26.030Z,63.60
2018-10-07T23:32:55.266Z,63.65
2018-10-07T23:35:24.303Z,64.09
2018-10-07T23:37:53.940Z,63.85
2018-10-07T23:40:22.987Z,63.26
2018-10-07T23:42:52.039Z,65.93
2018-10-07T23:45:21.072Z,67.43
2018-10-07T23:47:50.275Z,67.72
2018-10-07T23:50:19.279Z,66.37
2018-10-07T23:52:48.331Z,65.30
2018-10-07T23:55:17.343Z,65.26
2018-10-07T23:57:46.367Z,65.35
